Time;durP1;ratioP1;P1;durP2;ratioP2;P2;SDS_P1;SDS_P2;PMS_P1;PMS_P2;Temp;Humidity;BMP_temperature;BMP_pressure;BME280_temperature;BME280_humidity;BME280_pressure;Samples;Min_cycle;Max_cycle;Signal;HPM_P1;HPM_P2
2024/02/16 00:00:11;;;;;;;17.90;10.02;;;;;;;3.36;55.52;95534.78;5070298;28;20028;-81
2024/02/16 00:02:37;;;;;;;14.30;8.90;;;;;;;3.37;55.23;95534.38;5070397;28;20024;-81
2024/02/16 00:05:03;;;;;;;15.02;8.65;;;;;;;3.27;55.55;95524.22;5088295;28;20028;-81
2024/02/16 00:07:29;;;;;;;16.95;9.93;;;;;;;3.26;55.29;95538.16;5088472;28;20055;-83
2024/02/16 00:09:54;;;;;;;13.95;9.60;;;;;;;3.33;55.36;95530.88;5069771;28;20068;-83
2024/02/16 00:12:19;;;;;;;14.90;8.63;;;;;;;3.28;55.58;95536.66;5053647;28;20107;-81
2024/02/16 00:14:46;;;;;;;13.18;8.40;;;;;;;3.23;55.51;95525.34;5069784;28;20129;-82
2024/02/16 00:17:11;;;;;;;14.00;8.60;;;;;;;3.20;55.59;95519.50;5088632;28;20564;-81
2024/02/16 00:19:37;;;;;;;16.52;9.05;;;;;;;3.17;55.58;95530.34;5087738;28;20028;-81
2024/02/16 00:22:02;;;;;;;21.13;9.55;;;;;;;3.14;55.69;95529.16;5053096;28;20470;-81
2024/02/16 00:24:28;;;;;;;14.65;8.30;;;;;;;3.19;55.67;95530.75;5052991;28;20024;-83
2024/02/16 00:26:53;;;;;;;20.13;9.40;;;;;;;3.15;55.69;95529.91;5069473;28;20048;-81
2024/02/16 00:29:19;;;;;;;15.75;8.45;;;;;;;3.15;55.80;95527.22;5088349;28;20032;-81
2024/02/16 00:31:44;;;;;;;16.90;9.60;;;;;;;3.17;55.63;95533.06;5069731;28;20420;-82
2024/02/16 00:34:10;;;;;;;18.80;9.35;;;;;;;3.11;55.74;95535.34;5087946;28;20031;-82
2024/02/16 00:36:36;;;;;;;15.48;8.63;;;;;;;3.11;55.82;95534.56;5069347;28;20114;-81
2024/02/16 00:39:03;;;;;;;15.05;8.88;;;;;;;3.10;55.85;95531.06;5087769;28;20072;-81
2024/02/16 00:41:29;;;;;;;12.00;8.10;;;;;;;2.95;55.86;95523.16;5052809;28;20032;-82
2024/02/16 00:43:54;;;;;;;14.63;9.10;;;;;;;3.01;56.25;95529.81;5052532;28;20031;-81
2024/02/16 00:46:22;;;;;;;13.25;8.48;;;;;;;3.00;56.12;95539.13;5069661;28;20047;-81
2024/02/16 00:48:48;;;;;;;13.95;8.20;;;;;;;3.03;55.84;95535.63;5087206;28;20449;-81
2024/02/16 00:51:14;;;;;;;12.20;8.05;;;;;;;2.99;55.89;95537.56;5052972;28;20020;-81
2024/02/16 00:53:39;;;;;;;11.45;8.00;;;;;;;2.93;56.14;95527.03;5069054;28;20476;-82
2024/02/16 00:56:06;;;;;;;16.40;8.57;;;;;;;2.88;56.14;95526.59;5069333;28;20020;-82
2024/02/16 00:58:32;;;;;;;14.80;8.55;;;;;;;2.85;56.33;95530.03;5052220;28;20447;-82
2024/02/16 01:00:58;;;;;;;14.20;7.60;;;;;;;2.86;56.33;95528.88;5069036;28;20047;-82
2024/02/16 01:03:23;;;;;;;14.38;7.85;;;;;;;2.87;56.29;95539.38;5087274;28;20028;-82
2024/02/16 01:05:48;;;;;;;12.57;7.10;;;;;;;2.80;56.27;95525.72;5086911;28;20031;-81
2024/02/16 01:08:14;;;;;;;12.52;8.57;;;;;;;2.79;56.44;95526.09;5087519;28;20041;-81
2024/02/16 01:10:39;;;;;;;12.73;7.72;;;;;;;2.77;56.43;95531.91;5068603;28;20031;-84
2024/02/16 01:13:05;;;;;;;13.68;7.68;;;;;;;2.74;56.46;95529.91;5087174;28;20107;-81
2024/02/16 01:15:30;;;;;;;12.70;8.05;;;;;;;2.70;56.62;95526.41;5068624;28;20028;-81
2024/02/16 01:17:56;;;;;;;12.68;7.55;;;;;;;2.70;56.59;95520.97;5087307;28;20056;-81
2024/02/16 01:20:21;;;;;;;13.10;8.07;;;;;;;2.67;56.72;95525.19;5068495;28;20028;-82
2024/02/16 01:22:47;;;;;;;14.25;8.35;;;;;;;2.71;56.61;95527.94;5087040;28;20143;-81
2024/02/16 01:25:12;;;;;;;11.77;7.00;;;;;;;2.57;56.74;95522.34;5086651;28;20054;-81
2024/02/16 01:27:37;;;;;;;11.55;7.43;;;;;;;2.50;57.00;95517.63;5068585;28;20028;-81
2024/02/16 01:30:03;;;;;;;12.70;7.75;;;;;;;2.51;56.95;95521.13;5068613;28;20032;-82
2024/02/16 01:32:29;;;;;;;13.63;8.23;;;;;;;2.44;56.97;95518.34;5051634;28;20028;-81
2024/02/16 01:34:54;;;;;;;13.68;7.50;;;;;;;2.42;56.84;95512.50;5086530;28;20453;-81
2024/02/16 01:37:19;;;;;;;14.35;7.85;;;;;;;2.42;57.15;95507.06;5068052;28;20028;-82
2024/02/16 01:39:45;;;;;;;12.07;7.75;;;;;;;2.39;57.06;95508.59;5068574;28;20035;-81
2024/02/16 01:42:11;;;;;;;13.60;7.55;;;;;;;2.40;56.82;95519.06;5051544;28;20042;-81
2024/02/16 01:44:37;;;;;;;12.65;8.15;;;;;;;2.39;56.91;95517.50;5068107;28;20085;-82
2024/02/16 01:47:04;;;;;;;15.50;7.68;;;;;;;2.37;57.04;95519.03;5068389;28;20418;-81
2024/02/16 01:49:29;;;;;;;13.73;7.85;;;;;;;2.33;56.97;95510.06;5068128;28;20440;-82
2024/02/16 01:51:55;;;;;;;10.93;7.63;;;;;;;2.34;57.05;95504.25;5086545;28;20089;-81
2024/02/16 01:54:20;;;;;;;11.55;6.93;;;;;;;2.29;57.25;95506.50;5051237;28;20032;-81
2024/02/16 01:56:46;;;;;;;10.45;6.80;;;;;;;2.29;57.29;95507.28;5087213;28;20072;-81
2024/02/16 01:59:11;;;;;;;13.82;8.02;;;;;;;2.28;57.20;95507.66;5075032;28;20131;-82
2024/02/16 02:01:37;;;;;;;14.45;7.80;;;;;;;2.22;57.29;95501.00;5078356;28;20036;-82
2024/02/16 02:04:02;;;;;;;12.60;7.50;;;;;;;2.18;57.44;95502.88;5069958;28;20409;-82
2024/02/16 02:06:28;;;;;;;13.15;8.35;;;;;;;2.23;57.38;95506.06;5068642;28;20020;-81
2024/02/16 02:08:53;;;;;;;11.32;7.03;;;;;;;2.22;57.34;95512.66;5086089;28;20466;-81
2024/02/16 02:11:19;;;;;;;16.00;9.13;;;;;;;2.22;57.33;95506.44;5068116;28;20146;-81
2024/02/16 02:13:44;;;;;;;12.60;7.97;;;;;;;2.18;57.43;95511.03;5086267;28;20103;-81
2024/02/16 02:16:10;;;;;;;12.93;7.70;;;;;;;2.18;57.43;95508.31;5085452;28;20024;-81
2024/02/16 02:18:35;;;;;;;12.45;7.45;;;;;;;2.12;57.85;95505.16;5068035;28;20056;-81
2024/02/16 02:21:01;;;;;;;12.75;7.82;;;;;;;2.08;58.10;95504.34;5085942;28;20115;-81
2024/02/16 02:23:26;;;;;;;12.68;7.78;;;;;;;2.10;57.86;95505.53;5085732;28;20514;-81
2024/02/16 02:25:51;;;;;;;12.07;7.50;;;;;;;2.08;57.94;95509.75;5085874;28;20032;-83
2024/02/16 02:28:17;;;;;;;12.65;7.90;;;;;;;2.05;57.76;95522.13;5085557;28;20062;-83
2024/02/16 02:30:45;;;;;;;15.02;8.32;;;;;;;2.05;57.77;95516.69;5086231;28;20130;-83
2024/02/16 02:33:13;;;;;;;14.38;8.05;;;;;;;2.02;57.81;95511.25;5085207;28;20027;-83
2024/02/16 02:35:39;;;;;;;11.32;7.47;;;;;;;2.00;57.63;95516.22;5085939;28;20028;-83
2024/02/16 02:38:05;;;;;;;14.27;7.68;;;;;;;1.97;57.66;95517.75;5085469;28;20465;-81
2024/02/16 02:40:31;;;;;;;14.98;8.00;;;;;;;1.88;57.81;95513.75;5085729;28;20024;-81
2024/02/16 02:42:57;;;;;;;10.65;7.18;;;;;;;1.87;57.89;95510.25;5085879;28;20020;-82
2024/02/16 02:45:23;;;;;;;13.10;7.78;;;;;;;1.84;57.94;95505.59;5085866;28;20115;-81
2024/02/16 02:47:48;;;;;;;14.50;8.27;;;;;;;1.87;57.79;95510.25;5090271;28;20555;-81
2024/02/16 02:50:13;;;;;;;14.45;7.82;;;;;;;1.83;58.03;95504.00;5089445;28;20035;-82
2024/02/16 02:52:39;;;;;;;18.10;8.52;;;;;;;1.87;57.97;95502.13;5071414;28;20115;-82
2024/02/16 02:55:05;;;;;;;14.68;8.48;;;;;;;1.79;58.05;95490.41;5089030;28;20028;-82
2024/02/16 02:57:30;;;;;;;10.50;7.80;;;;;;;1.86;58.08;95503.28;5071628;28;20040;-82
2024/02/16 03:00:05;;;;;;;13.57;7.32;;;;;;;1.89;57.83;95510.66;5089686;28;20051;-81
2024/02/16 03:02:31;;;;;;;16.02;7.45;;;;;;;1.84;57.84;95506.34;5089409;28;20052;-81
2024/02/16 03:04:56;;;;;;;13.02;7.15;;;;;;;1.85;57.88;95512.56;5054534;28;20042;-82
2024/02/16 03:07:22;;;;;;;13.95;7.35;;;;;;;1.82;58.03;95513.28;5071161;28;20206;-81
2024/02/16 03:09:47;;;;;;;13.63;8.05;;;;;;;1.82;58.01;95505.16;5089741;28;20078;-81
2024/02/16 03:12:12;;;;;;;15.48;8.38;;;;;;;1.78;58.22;95513.25;5070581;28;20107;-82
2024/02/16 03:14:38;;;;;;;12.73;7.63;;;;;;;1.80;58.12;95512.88;5089618;28;20391;-81
2024/02/16 03:17:03;;;;;;;12.38;6.80;;;;;;;1.77;58.12;95519.78;5089092;28;20036;-82
2024/02/16 03:19:29;;;;;;;14.80;7.88;;;;;;;1.77;58.23;95522.50;5089230;28;20387;-82
2024/02/16 03:21:55;;;;;;;13.18;7.40;;;;;;;1.80;58.32;95521.00;5089463;28;20444;-82
2024/02/16 03:24:20;;;;;;;13.57;8.45;;;;;;;1.75;58.24;95513.19;5088945;28;20032;-82
2024/02/16 03:26:47;;;;;;;16.25;9.60;;;;;;;1.73;58.45;95516.28;5089587;28;20020;-83
2024/02/16 03:29:12;;;;;;;16.60;8.82;;;;;;;1.69;58.37;95512.72;5070423;28;20401;-83
2024/02/16 03:31:38;;;;;;;17.63;9.82;;;;;;;1.66;58.40;95513.44;5071238;28;20024;-83
2024/02/16 03:34:03;;;;;;;19.08;10.05;;;;;;;1.72;58.32;95516.63;5070329;28;20032;-83
2024/02/16 03:36:30;;;;;;;15.93;8.90;;;;;;;1.71;58.48;95512.34;5071062;28;20042;-83
2024/02/16 03:38:56;;;;;;;16.65;9.70;;;;;;;1.67;58.60;95512.31;5054156;28;20028;-83
2024/02/16 03:41:23;;;;;;;23.60;10.40;;;;;;;1.73;58.58;95513.56;5070601;28;20038;-83
2024/02/16 03:43:48;;;;;;;16.25;9.18;;;;;;;1.71;58.47;95523.19;5071155;28;20023;-83
2024/02/16 03:46:13;;;;;;;17.65;10.10;;;;;;;1.61;58.52;95500.22;5088584;28;20032;-83
2024/02/16 03:48:42;;;;;;;16.55;9.32;;;;;;;1.69;58.53;95517.34;5070986;28;20077;-82
2024/02/16 03:51:07;;;;;;;17.15;9.40;;;;;;;1.69;58.48;95515.44;5053587;28;20647;-83
2024/02/16 03:53:33;;;;;;;15.80;9.40;;;;;;;1.63;58.58;95516.09;5070519;28;20050;-83
2024/02/16 03:55:58;;;;;;;19.52;10.15;;;;;;;1.64;58.96;95517.66;5070018;28;20506;-83
2024/02/16 03:58:24;;;;;;;13.45;9.18;;;;;;;1.63;58.64;95513.41;5070207;28;20028;-81
2024/02/16 04:00:49;;;;;;;15.70;9.38;;;;;;;1.57;58.67;95507.50;5067447;28;20534;-81
2024/02/16 04:03:15;;;;;;;15.07;8.93;;;;;;;1.57;58.52;95507.50;5066587;28;20431;-82
2024/02/16 04:05:41;;;;;;;17.55;8.93;;;;;;;1.55;58.44;95507.88;5067359;28;20106;-82
2024/02/16 04:08:07;;;;;;;16.15;9.73;;;;;;;1.50;58.96;95508.19;5067572;28;20067;-81
2024/02/16 04:10:35;;;;;;;14.52;9.27;;;;;;;1.46;59.01;95512.00;5067083;28;20510;-81
2024/02/16 04:13:01;;;;;;;16.45;9.68;;;;;;;1.49;58.66;95508.53;5066519;28;20475;-82
2024/02/16 04:15:26;;;;;;;13.85;8.48;;;;;;;1.50;58.53;95510.91;5066803;28;20035;-81
2024/02/16 04:17:52;;;;;;;13.73;8.88;;;;;;;1.48;58.67;95515.09;5067083;28;20017;-81
2024/02/16 04:20:18;;;;;;;14.18;8.65;;;;;;;1.46;58.42;95509.28;5066243;28;20082;-81
2024/02/16 04:22:44;;;;;;;17.92;9.70;;;;;;;1.39;58.92;95512.66;5068459;28;20032;-81
2024/02/16 04:25:09;;;;;;;15.90;9.05;;;;;;;1.44;58.79;95514.28;5067490;28;20032;-83
2024/02/16 04:27:35;;;;;;;14.00;8.48;;;;;;;1.41;58.78;95515.00;5068287;28;20024;-83
2024/02/16 04:30:02;;;;;;;16.08;8.20;;;;;;;1.39;58.63;95509.94;5065932;28;20081;-83
2024/02/16 04:32:27;;;;;;;12.88;8.00;;;;;;;1.35;58.72;95514.53;5049956;28;20103;-83
2024/02/16 04:34:53;;;;;;;16.92;8.18;;;;;;;1.30;58.78;95512.91;5066313;28;20108;-83
2024/02/16 04:37:18;;;;;;;14.88;8.27;;;;;;;1.31;59.08;95524.50;5067397;28;20032;-83
2024/02/16 04:39:44;;;;;;;12.23;7.60;;;;;;;1.30;58.58;95518.31;5066571;28;20047;-83
2024/02/16 04:42:10;;;;;;;12.68;8.05;;;;;;;1.31;58.52;95519.09;5066010;28;20024;-83
2024/02/16 04:44:38;;;;;;;17.63;9.23;;;;;;;1.19;58.54;95503.03;5068634;28;20028;-82
2024/02/16 04:47:04;;;;;;;18.80;8.45;;;;;;;1.23;58.63;95509.31;5066164;28;20471;-82
2024/02/16 04:49:30;;;;;;;13.45;8.70;;;;;;;1.30;58.57;95521.03;5049544;28;20036;-82
2024/02/16 04:51:55;;;;;;;15.05;9.25;;;;;;;1.26;58.88;95524.81;5066155;28;20545;-83
2024/02/16 04:54:21;;;;;;;17.75;8.77;;;;;;;1.25;58.97;95525.97;5067048;28;20455;-83
2024/02/16 04:56:46;;;;;;;14.68;9.15;;;;;;;1.17;59.14;95525.06;5066262;28;20020;-83
2024/02/16 04:59:12;;;;;;;14.10;8.90;;;;;;;1.19;59.25;95524.72;5065511;28;20032;-83
2024/02/16 05:01:37;;;;;;;17.00;9.77;;;;;;;1.16;59.35;95517.31;5032793;28;20123;-83
2024/02/16 05:04:03;;;;;;;13.23;9.75;;;;;;;1.12;59.26;95525.38;5065516;28;20403;-83
2024/02/16 05:06:28;;;;;;;16.33;9.57;;;;;;;1.09;59.28;95517.19;5067739;28;20103;-83
2024/02/16 05:08:56;;;;;;;14.15;9.75;;;;;;;1.17;59.37;95538.63;5066681;28;20452;-83
2024/02/16 05:11:24;;;;;;;18.42;9.32;;;;;;;1.13;59.29;95529.66;5067780;28;20051;-83
2024/02/16 05:13:50;;;;;;;17.67;10.00;;;;;;;1.12;59.47;95541.63;5066907;28;20074;-83
2024/02/16 05:16:15;;;;;;;19.67;10.82;;;;;;;1.09;59.36;95542.38;5065671;28;20036;-83
2024/02/16 05:18:41;;;;;;;13.68;9.15;;;;;;;1.11;59.36;95553.59;5066701;28;20024;-84
2024/02/16 05:21:06;;;;;;;12.77;8.70;;;;;;;0.97;59.71;95546.00;5066477;28;20028;-83
2024/02/16 05:23:31;;;;;;;17.88;9.98;;;;;;;1.08;59.48;95556.25;5065695;28;20028;-83
2024/02/16 05:25:57;;;;;;;15.68;9.43;;;;;;;1.03;59.79;95557.31;5066357;28;20051;-83
2024/02/16 05:28:22;;;;;;;14.00;9.98;;;;;;;1.10;59.38;95557.47;5066724;28;20128;-82
2024/02/16 05:30:47;;;;;;;18.58;9.63;;;;;;;1.07;59.04;95555.47;5065254;28;20081;-83
2024/02/16 05:33:13;;;;;;;15.70;9.77;;;;;;;1.12;58.97;95560.59;5065072;28;20056;-83
2024/02/16 05:35:39;;;;;;;18.42;10.23;;;;;;;1.11;59.10;95564.44;5066807;28;20410;-77
2024/02/16 05:38:20;;;;;;;17.25;10.50;;;;;;;1.13;59.04;95567.56;5066183;28;20107;-76
2024/02/16 05:40:56;;;;;;;20.13;10.57;;;;;;;1.13;59.01;95564.06;5065778;28;20024;-79
2024/02/16 05:43:23;;;;;;;17.80;10.43;;;;;;;1.10;59.25;95571.00;5064596;28;20062;-76
2024/02/16 05:45:49;;;;;;;19.13;10.18;;;;;;;1.10;59.16;95573.72;5065319;28;20081;-78
2024/02/16 05:48:14;;;;;;;17.13;9.88;;;;;;;1.12;59.37;95570.63;5064763;28;20017;-77
2024/02/16 05:50:40;;;;;;;15.73;10.40;;;;;;;1.11;59.54;95569.06;5064722;28;20036;-79
2024/02/16 05:53:06;;;;;;;16.95;10.23;;;;;;;1.06;59.84;95578.28;5066188;28;20063;-78
2024/02/16 05:55:31;;;;;;;16.38;10.82;;;;;;;1.07;59.94;95571.72;5066097;28;20056;-78
2024/02/16 05:57:56;;;;;;;26.17;11.57;;;;;;;1.12;60.09;95570.63;5066709;28;20028;-78
2024/02/16 06:00:22;;;;;;;19.42;11.40;;;;;;;1.12;60.08;95571.41;5067206;28;20074;-78
2024/02/16 06:02:47;;;;;;;17.40;10.15;;;;;;;1.16;59.75;95580.41;5086422;28;20024;-78
2024/02/16 06:05:13;;;;;;;18.65;12.07;;;;;;;1.19;59.96;95578.88;5084612;28;20031;-79
2024/02/16 06:07:40;;;;;;;19.35;12.45;;;;;;;1.25;59.96;95580.13;5084952;28;20052;-77
2024/02/16 06:10:10;;;;;;;23.98;13.82;;;;;;;1.29;59.89;95578.28;5085879;28;20028;-77
2024/02/16 06:12:39;;;;;;;17.77;12.35;;;;;;;1.30;59.62;95580.63;5085843;28;20035;-77
2024/02/16 06:15:05;;;;;;;31.25;13.85;;;;;;;1.40;59.89;95578.47;5086648;28;20036;-77
2024/02/16 06:17:30;;;;;;;18.67;13.38;;;;;;;1.42;59.84;95579.66;5086038;28;20110;-77
2024/02/16 06:19:56;;;;;;;22.25;12.38;;;;;;;1.48;59.76;95582.84;5086056;28;20106;-77
2024/02/16 06:22:21;;;;;;;23.42;13.80;;;;;;;1.50;59.60;95578.66;5085522;28;20428;-78
2024/02/16 06:24:47;;;;;;;24.48;14.50;;;;;;;1.50;59.77;95581.34;5086079;28;20028;-77
2024/02/16 06:27:13;;;;;;;22.77;13.98;;;;;;;1.51;59.96;95579.44;5085956;28;20085;-78
2024/02/16 06:29:38;;;;;;;21.50;14.52;;;;;;;1.59;59.67;95571.03;5067889;28;20024;-77
2024/02/16 06:32:04;;;;;;;33.92;17.50;;;;;;;1.63;59.88;95584.66;5085989;28;20028;-77
2024/02/16 06:34:30;;;;;;;25.95;15.85;;;;;;;1.67;60.04;95580.06;5085386;28;20119;-78
2024/02/16 06:36:56;;;;;;;29.13;16.60;;;;;;;1.70;60.15;95579.34;5086113;28;20032;-78
2024/02/16 06:39:21;;;;;;;28.10;16.88;;;;;;;1.77;60.00;95584.06;5085045;28;20074;-78
2024/02/16 06:41:47;;;;;;;29.10;17.88;;;;;;;1.83;59.89;95583.41;5085879;28;20103;-77
2024/02/16 06:44:13;;;;;;;30.27;19.58;;;;;;;1.84;59.94;95584.97;5085428;28;20039;-78
2024/02/16 06:46:38;;;;;;;31.52;18.73;;;;;;;1.91;59.76;95587.00;5085876;28;20024;-79
2024/02/16 06:49:04;;;;;;;38.72;22.20;;;;;;;2.03;59.39;95586.03;5067768;28;20069;-78
2024/02/16 06:51:29;;;;;;;39.97;23.70;;;;;;;2.11;59.31;95587.66;5085990;28;20020;-79
2024/02/16 06:53:55;;;;;;;47.05;23.88;;;;;;;2.15;59.25;95580.38;5086132;28;20418;-79
2024/02/16 06:56:20;;;;;;;44.67;23.05;;;;;;;2.26;58.75;95586.72;5067194;28;20032;-78
2024/02/16 06:58:46;;;;;;;43.00;23.17;;;;;;;2.34;58.53;95585.66;5067843;28;20078;-78
2024/02/16 07:01:13;;;;;;;47.50;24.73;;;;;;;2.37;58.65;95590.38;5066848;28;20080;-78
2024/02/16 07:03:38;;;;;;;36.60;24.02;;;;;;;2.45;58.42;95583.09;5086304;28;20036;-78
2024/02/16 07:06:07;;;;;;;45.95;23.58;;;;;;;2.56;58.17;95585.94;5086336;28;20528;-79
2024/02/16 07:08:33;;;;;;;35.53;21.45;;;;;;;2.64;58.02;95582.19;5067904;28;20084;-79
2024/02/16 07:10:58;;;;;;;41.85;22.13;;;;;;;2.73;57.94;95585.38;5067887;28;20095;-79
2024/02/16 07:13:24;;;;;;;36.88;21.35;;;;;;;2.85;57.70;95593.25;5085053;28;20719;-79
2024/02/16 07:15:50;;;;;;;36.53;20.55;;;;;;;2.91;57.72;95580.91;5085789;28;20024;-79
2024/02/16 07:18:15;;;;;;;33.08;20.25;;;;;;;3.03;57.23;95590.75;5066821;28;20024;-78
2024/02/16 07:20:41;;;;;;;36.58;20.75;;;;;;;3.07;57.05;95575.28;5085910;28;20138;-79
2024/02/16 07:23:06;;;;;;;35.85;21.52;;;;;;;3.24;56.93;95587.47;5084930;28;20099;-77
2024/02/16 07:25:31;;;;;;;39.70;22.88;;;;;;;3.33;56.53;95574.38;5085505;28;20028;-77
2024/02/16 07:27:57;;;;;;;36.88;23.75;;;;;;;3.44;56.50;95577.97;5085524;28;20035;-77
2024/02/16 07:30:22;;;;;;;42.30;24.17;;;;;;;3.55;56.34;95579.97;5085069;28;20066;-77
2024/02/16 07:32:50;;;;;;;38.35;23.45;;;;;;;3.68;56.01;95582.03;5088457;28;20016;-77
2024/02/16 07:35:15;;;;;;;42.70;23.95;;;;;;;3.81;55.89;95585.25;5088683;28;20302;-78
2024/02/16 07:37:41;;;;;;;39.22;23.45;;;;;;;3.92;55.55;95585.31;5089644;28;20417;-77
2024/02/16 07:40:09;;;;;;;37.40;19.88;;;;;;;4.07;55.01;95583.47;5069936;28;20043;-78
2024/02/16 07:42:42;;;;;;;32.10;18.70;;;;;;;4.17;54.52;95569.16;5089280;28;20024;-76
2024/02/16 07:45:09;;;;;;;37.50;18.20;;;;;;;4.38;54.35;95591.06;5088848;28;20115;-77
2024/02/16 07:47:34;;;;;;;31.52;17.83;;;;;;;4.51;54.09;95583.34;5088920;28;20028;-77
2024/02/16 07:50:00;;;;;;;31.88;18.00;;;;;;;4.66;53.65;95587.69;5089374;28;20640;-77
2024/02/16 07:52:25;;;;;;;32.95;19.15;;;;;;;4.77;53.27;95583.06;5069896;28;20020;-77
2024/02/16 07:54:51;;;;;;;27.42;17.38;;;;;;;5.03;52.91;95590.16;5088741;28;20032;-79
2024/02/16 07:57:17;;;;;;;30.25;19.08;;;;;;;5.26;52.24;95591.75;5088355;28;20103;-78
2024/02/16 07:59:43;;;;;;;28.55;17.48;;;;;;;5.51;52.09;95591.81;5088666;28;20166;-75
2024/02/16 08:02:09;;;;;;;32.05;18.42;;;;;;;5.83;50.99;95592.59;5087871;28;20052;-75
2024/02/16 08:04:35;;;;;;;31.02;19.05;;;;;;;6.10;50.15;95597.69;5070131;28;20119;-75
2024/02/16 08:07:01;;;;;;;30.80;20.42;;;;;;;6.45;49.22;95596.06;5088699;28;20498;-74
2024/02/16 08:09:26;;;;;;;31.50;19.60;;;;;;;6.79;48.23;95590.91;5087440;28;20462;-75
2024/02/16 08:11:52;;;;;;;29.63;19.42;;;;;;;7.07;47.84;95584.53;5088890;28;20036;-74
2024/02/16 08:14:17;;;;;;;29.65;18.90;;;;;;;7.58;47.03;95602.22;5087378;28;20028;-75
2024/02/16 08:16:43;;;;;;;25.55;17.88;;;;;;;7.93;46.14;95595.69;5088506;28;20107;-74
2024/02/16 08:19:08;;;;;;;20.17;14.18;;;;;;;8.37;44.92;95600.44;5087554;28;20130;-75
2024/02/16 08:21:33;;;;;;;19.92;12.50;;;;;;;8.74;44.03;95599.66;5088165;28;20449;-76
2024/02/16 08:23:59;;;;;;;17.08;10.55;;;;;;;9.14;42.88;95590.97;5088201;28;20020;-75
2024/02/16 08:26:24;;;;;;;13.45;9.15;;;;;;;9.64;42.12;95593.03;5087628;28;20075;-74
2024/02/16 08:28:50;;;;;;;16.20;8.63;;;;;;;10.16;40.94;95598.88;5088318;28;20030;-74
2024/02/16 08:31:17;;;;;;;16.73;9.90;;;;;;;10.70;39.36;95593.22;5087217;28;20111;-74
2024/02/16 08:33:44;;;;;;;13.85;11.18;;;;;;;11.25;38.48;95589.00;5088452;28;20035;-75
2024/02/16 08:36:09;;;;;;;15.50;10.13;;;;;;;11.90;37.32;95589.13;5087150;28;20433;-75
2024/02/16 08:38:36;;;;;;;15.35;10.20;;;;;;;12.70;35.36;95594.25;5087949;28;20060;-75
2024/02/16 08:41:03;;;;;;;16.42;9.50;;;;;;;13.45;34.19;95592.94;5087773;28;20032;-75
2024/02/16 08:43:28;;;;;;;15.93;10.88;;;;;;;14.42;32.59;95595.47;5086047;28;20089;-75
2024/02/16 08:45:54;;;;;;;15.68;10.15;;;;;;;15.34;31.43;95597.78;5088219;28;20024;-75
2024/02/16 08:48:19;;;;;;;14.88;10.18;;;;;;;16.56;29.23;95599.38;5086881;28;20476;-74
2024/02/16 08:50:44;;;;;;;16.48;10.45;;;;;;;17.77;27.33;95596.88;5087996;28;20059;-75
2024/02/16 08:53:10;;;;;;;16.50;10.23;;;;;;;18.84;26.02;95596.53;5086915;28;20371;-74
2024/02/16 08:55:35;;;;;;;16.90;11.30;;;;;;;19.71;24.87;95597.16;5087652;28;20444;-76
2024/02/16 08:58:01;;;;;;;17.55;11.68;;;;;;;20.58;23.59;95600.31;5087155;28;20099;-75
2024/02/16 09:00:28;;;;;;;18.55;11.40;;;;;;;21.32;22.69;95602.75;5086929;28;20024;-75
2024/02/16 09:02:53;;;;;;;17.50;11.05;;;;;;;22.15;21.84;95598.47;5087586;28;20468;-76
2024/02/16 09:05:19;;;;;;;17.65;11.00;;;;;;;22.84;21.07;95604.78;5086682;28;20526;-76
2024/02/16 09:07:47;;;;;;;17.77;11.65;;;;;;;23.39;20.73;95600.66;5087662;28;20043;-76
2024/02/16 09:10:14;;;;;;;16.27;11.10;;;;;;;24.33;19.58;95602.06;5086287;28;20483;-74
2024/02/16 09:12:39;;;;;;;17.17;10.63;;;;;;;24.96;18.75;95606.31;5087028;28;20024;-75
2024/02/16 09:15:05;;;;;;;14.80;10.65;;;;;;;25.57;17.99;95602.47;5086498;28;20129;-75
2024/02/16 09:17:31;;;;;;;17.55;10.70;;;;;;;26.10;17.75;95599.59;5086868;28;20134;-75
2024/02/16 09:19:57;;;;;;;14.68;10.15;;;;;;;26.63;17.04;95603.75;5086840;28;20095;-76
2024/02/16 09:22:22;;;;;;;9.73;8.48;;;;;;;27.07;16.41;95604.59;5086518;28;20035;-76
2024/02/16 09:24:47;;;;;;;9.88;7.50;;;;;;;27.55;15.91;95608.59;5087277;28;20024;-75
2024/02/16 09:27:13;;;;;;;9.65;7.25;;;;;;;27.89;15.58;95611.75;5086293;28;20356;-76
2024/02/16 09:29:39;;;;;;;11.25;7.80;;;;;;;28.19;15.45;95610.78;5087047;28;20055;-76
2024/02/16 09:32:05;;;;;;;11.18;7.43;;;;;;;28.71;15.28;95607.31;5086664;28;20055;-76
2024/02/16 09:34:31;;;;;;;12.15;6.20;;;;;;;29.19;14.68;95607.47;5086504;28;20046;-75
2024/02/16 09:36:56;;;;;;;10.95;6.45;;;;;;;29.44;14.16;95605.19;5086355;28;20032;-77
2024/02/16 09:39:21;;;;;;;8.38;6.28;;;;;;;29.63;14.22;95600.16;5086371;28;20071;-75
2024/02/16 09:41:50;;;;;;;8.45;5.97;;;;;;;29.92;13.85;95595.38;5087003;28;20406;-75
2024/02/16 09:44:16;;;;;;;7.82;5.95;;;;;;;29.84;13.95;95603.03;5085918;28;20563;-75
2024/02/16 09:46:42;;;;;;;9.63;6.25;;;;;;;30.35;13.97;95600.56;5068494;28;20400;-76
2024/02/16 09:49:07;;;;;;;7.80;6.20;;;;;;;30.92;13.37;95594.97;5086482;28;20023;-76
2024/02/16 09:51:36;;;;;;;8.40;6.25;;;;;;;31.56;12.99;95590.59;5068029;28;20024;-76
2024/02/16 09:54:03;;;;;;;10.98;5.45;;;;;;;31.78;12.33;95597.69;5085713;28;20016;-76
2024/02/16 09:56:28;;;;;;;5.40;4.05;;;;;;;31.88;12.27;95589.41;5086369;28;20051;-75
2024/02/16 09:58:57;;;;;;;4.63;3.60;;;;;;;32.27;12.24;95591.00;5086542;28;20479;-77
2024/02/16 10:01:23;;;;;;;9.20;4.40;;;;;;;32.63;11.78;95588.03;5085565;28;20044;-75
2024/02/16 10:03:49;;;;;;;8.23;5.00;;;;;;;32.64;12.00;95583.09;5086560;28;20506;-76
2024/02/16 10:06:16;;;;;;;6.88;3.60;;;;;;;33.34;11.22;95582.41;5085657;28;20039;-76
2024/02/16 10:08:50;;;;;;;5.50;3.72;;;;;;;33.40;11.45;95577.28;5086446;28;20035;-77
2024/02/16 10:11:18;;;;;;;4.28;2.90;;;;;;;33.94;10.75;95559.97;5085591;28;20051;-76
2024/02/16 10:14:03;;;;;;;4.53;3.25;;;;;;;34.08;10.64;95552.66;5086277;28;20070;-77
2024/02/16 10:16:29;;;;;;;9.05;3.72;;;;;;;34.23;10.63;95563.19;5086403;28;20032;-76
2024/02/16 10:18:59;;;;;;;7.10;3.92;;;;;;;34.09;10.94;95559.88;5085649;28;20028;-76
2024/02/16 10:21:26;;;;;;;4.80;3.72;;;;;;;34.17;10.63;95554.84;5086330;28;20024;-76
2024/02/16 10:24:02;;;;;;;4.93;4.15;;;;;;;34.48;10.63;95560.38;5085566;28;20020;-76
2024/02/16 10:26:28;;;;;;;6.55;4.05;;;;;;;34.16;10.89;95555.44;5085924;28;20113;-78
2024/02/16 10:28:56;;;;;;;5.10;3.80;;;;;;;33.85;10.66;95560.56;5085817;28;20073;-77
2024/02/16 10:31:27;;;;;;;6.05;3.83;;;;;;;33.98;10.99;95546.06;5085396;28;20032;-76
2024/02/16 10:33:56;;;;;;;3.50;3.00;;;;;;;33.51;10.98;95541.91;5086706;28;20020;-77
2024/02/16 10:36:21;;;;;;;3.38;2.70;;;;;;;33.00;11.60;95548.72;5084919;28;20352;-76
2024/02/16 10:38:48;;;;;;;5.78;3.80;;;;;;;33.06;11.63;95537.13;5086028;28;20534;-76
2024/02/16 10:41:14;;;;;;;5.88;3.65;;;;;;;33.50;11.49;95532.63;5085368;28;20107;-76
2024/02/16 10:43:39;;;;;;;5.13;4.10;;;;;;;33.69;11.27;95526.44;5085651;28;20021;-77
2024/02/16 10:46:05;;;;;;;12.23;6.55;;;;;;;34.26;11.07;95530.66;5085221;28;20024;-77
2024/02/16 10:48:30;;;;;;;8.93;5.25;;;;;;;34.37;10.85;95527.34;5085452;28;20085;-76
2024/02/16 10:50:57;;;;;;;4.18;3.10;;;;;;;34.92;10.48;95531.22;5086050;28;20016;-77
2024/02/16 10:53:25;;;;;;;4.63;3.97;;;;;;;35.10;10.58;95524.22;5084466;28;20028;-77
2024/02/16 10:55:51;;;;;;;5.55;3.35;;;;;;;35.25;10.29;95523.28;5067802;28;20020;-76
2024/02/16 10:58:17;;;;;;;6.47;4.55;;;;;;;35.16;10.45;95518.25;5084747;28;20020;-76
2024/02/16 11:01:12;;;;;;;5.10;3.53;;;;;;;35.43;10.21;95510.50;5085574;28;20044;-75
2024/02/16 11:03:39;;;;;;;3.67;3.10;;;;;;;35.82;10.05;95510.75;5083422;28;20064;-76
2024/02/16 11:06:17;;;;;;;3.35;3.00;;;;;;;35.90;9.81;95515.03;5085127;28;20027;-77
2024/02/16 11:08:43;;;;;;;5.95;3.55;;;;;;;35.86;9.70;95511.84;5089806;28;20024;-77
2024/02/16 11:11:11;;;;;;;3.58;2.88;;;;;;;36.07;9.55;95511.38;5070713;28;20120;-76
2024/02/16 11:13:37;;;;;;;4.05;2.80;;;;;;;36.23;9.56;95508.25;5071446;28;20501;-77
2024/02/16 11:16:13;;;;;;;5.50;3.08;;;;;;;36.35;9.56;95512.06;5070573;28;20111;-77
2024/02/16 11:18:46;;;;;;;4.85;3.20;;;;;;;36.66;9.42;95509.47;5089040;28;20475;-76
2024/02/16 11:21:12;;;;;;;4.28;3.42;;;;;;;37.07;9.15;95506.84;5091861;28;20028;-76
2024/02/16 11:23:40;;;;;;;4.43;3.08;;;;;;;36.98;9.02;95510.44;5088928;28;20020;-76